sensor_id;sensor_type;location;lat;lon;timestamp;P1;durP1;ratioP1;P2;durP2;ratioP2
19074;SDS011;9670;50.086;8.646;2022-07-03T00:00:09;9.33;;;8.73;;
19074;SDS011;9670;50.086;8.646;2022-07-03T00:01:14;8.90;;;8.10;;
19074;SDS011;9670;50.086;8.646;2022-07-03T00:02:17;9.00;;;8.40;;
19074;SDS011;9670;50.086;8.646;2022-07-03T00:03:20;8.23;;;7.73;;
19074;SDS011;9670;50.086;8.646;2022-07-03T00:04:23;8.97;;;8.47;;
19074;SDS011;9670;50.086;8.646;2022-07-03T00:05:24;8.67;;;8.03;;
19074;SDS011;9670;50.086;8.646;2022-07-03T00:06:27;8.70;;;7.90;;
19074;SDS011;9670;50.086;8.646;2022-07-03T00:07:31;7.80;;;7.30;;
19074;SDS011;9670;50.086;8.646;2022-07-03T00:08:34;7.90;;;7.40;;
19074;SDS011;9670;50.086;8.646;2022-07-03T00:09:36;8.70;;;8.10;;
19074;SDS011;9670;50.086;8.646;2022-07-03T00:10:39;8.27;;;7.77;;
19074;SDS011;9670;50.086;8.646;2022-07-03T00:11:42;8.97;;;8.33;;
19074;SDS011;9670;50.086;8.646;2022-07-03T00:12:45;9.20;;;8.47;;
19074;SDS011;9670;50.086;8.646;2022-07-03T00:13:46;9.07;;;8.47;;
19074;SDS011;9670;50.086;8.646;2022-07-03T00:14:49;8.70;;;8.20;;
19074;SDS011;9670;50.086;8.646;2022-07-03T00:15:52;9.10;;;8.40;;
19074;SDS011;9670;50.086;8.646;2022-07-03T00:16:54;8.40;;;8.00;;
19074;SDS011;9670;50.086;8.646;2022-07-03T00:17:57;9.17;;;8.50;;
19074;SDS011;9670;50.086;8.646;2022-07-03T00:19:00;8.70;;;8.20;;
19074;SDS011;9670;50.086;8.646;2022-07-03T00:20:03;9.77;;;9.07;;
19074;SDS011;9670;50.086;8.646;2022-07-03T00:21:06;9.13;;;8.53;;
19074;SDS011;9670;50.086;8.646;2022-07-03T00:22:11;8.70;;;8.20;;
19074;SDS011;9670;50.086;8.646;2022-07-03T00:23:15;9.23;;;8.40;;
19074;SDS011;9670;50.086;8.646;2022-07-03T00:24:21;10.20;;;9.70;;
19074;SDS011;9670;50.086;8.646;2022-07-03T00:25:25;9.43;;;8.93;;
19074;SDS011;9670;50.086;8.646;2022-07-03T00:26:29;9.97;;;9.47;;
19074;SDS011;9670;50.086;8.646;2022-07-03T00:27:34;9.63;;;9.13;;
19074;SDS011;9670;50.086;8.646;2022-07-03T00:28:36;9.50;;;8.67;;
19074;SDS011;9670;50.086;8.646;2022-07-03T00:29:40;9.17;;;8.50;;
19074;SDS011;9670;50.086;8.646;2022-07-03T00:30:45;10.30;;;9.57;;
19074;SDS011;9670;50.086;8.646;2022-07-03T00:31:49;10.17;;;9.57;;
19074;SDS011;9670;50.086;8.646;2022-07-03T00:32:52;9.80;;;9.10;;
19074;SDS011;9670;50.086;8.646;2022-07-03T00:33:54;10.00;;;9.50;;
19074;SDS011;9670;50.086;8.646;2022-07-03T00:35:00;10.20;;;9.70;;
19074;SDS011;9670;50.086;8.646;2022-07-03T00:36:03;9.27;;;8.70;;
19074;SDS011;9670;50.086;8.646;2022-07-03T00:37:06;8.97;;;8.37;;
19074;SDS011;9670;50.086;8.646;2022-07-03T00:38:10;9.27;;;8.60;;
19074;SDS011;9670;50.086;8.646;2022-07-03T00:39:13;10.03;;;9.33;;
19074;SDS011;9670;50.086;8.646;2022-07-03T00:40:15;10.10;;;9.27;;
19074;SDS011;9670;50.086;8.646;2022-07-03T00:41:24;10.17;;;9.50;;
19074;SDS011;9670;50.086;8.646;2022-07-03T00:42:27;10.40;;;9.60;;
19074;SDS011;9670;50.086;8.646;2022-07-03T00:43:30;10.07;;;9.33;;
19074;SDS011;9670;50.086;8.646;2022-07-03T00:44:33;9.70;;;9.00;;
19074;SDS011;9670;50.086;8.646;2022-07-03T00:45:36;9.43;;;8.83;;
19074;SDS011;9670;50.086;8.646;2022-07-03T00:46:41;9.40;;;8.90;;
19074;SDS011;9670;50.086;8.646;2022-07-03T00:47:44;10.33;;;9.57;;
19074;SDS011;9670;50.086;8.646;2022-07-03T00:48:46;9.07;;;8.37;;
19074;SDS011;9670;50.086;8.646;2022-07-03T00:49:49;9.90;;;9.20;;
19074;SDS011;9670;50.086;8.646;2022-07-03T00:50:53;9.03;;;8.53;;
19074;SDS011;9670;50.086;8.646;2022-07-03T00:51:56;9.77;;;8.97;;
19074;SDS011;9670;50.086;8.646;2022-07-03T00:52:58;10.07;;;9.57;;
19074;SDS011;9670;50.086;8.646;2022-07-03T00:54:01;9.00;;;8.30;;
19074;SDS011;9670;50.086;8.646;2022-07-03T00:55:06;8.77;;;8.07;;
19074;SDS011;9670;50.086;8.646;2022-07-03T00:56:10;9.20;;;8.60;;
19074;SDS011;9670;50.086;8.646;2022-07-03T00:57:15;10.17;;;9.67;;
19074;SDS011;9670;50.086;8.646;2022-07-03T00:58:18;10.07;;;9.27;;
19074;SDS011;9670;50.086;8.646;2022-07-03T00:59:20;10.27;;;9.47;;
19074;SDS011;9670;50.086;8.646;2022-07-03T01:00:23;9.57;;;9.00;;
19074;SDS011;9670;50.086;8.646;2022-07-03T01:01:25;9.20;;;8.67;;
19074;SDS011;9670;50.086;8.646;2022-07-03T01:02:31;9.57;;;9.03;;
19074;SDS011;9670;50.086;8.646;2022-07-03T01:03:37;9.87;;;9.17;;
19074;SDS011;9670;50.086;8.646;2022-07-03T01:04:44;11.20;;;10.20;;
19074;SDS011;9670;50.086;8.646;2022-07-03T01:05:52;9.73;;;9.13;;
19074;SDS011;9670;50.086;8.646;2022-07-03T01:06:59;9.70;;;8.87;;
19074;SDS011;9670;50.086;8.646;2022-07-03T01:08:04;9.47;;;8.67;;
19074;SDS011;9670;50.086;8.646;2022-07-03T01:09:12;10.07;;;9.57;;
19074;SDS011;9670;50.086;8.646;2022-07-03T01:10:16;9.73;;;9.02;;
19074;SDS011;9670;50.086;8.646;2022-07-03T01:11:31;8.30;;;7.70;;
19074;SDS011;9670;50.086;8.646;2022-07-03T01:12:38;9.10;;;8.53;;
19074;SDS011;9670;50.086;8.646;2022-07-03T01:14:00;9.30;;;8.73;;
19074;SDS011;9670;50.086;8.646;2022-07-03T01:15:09;8.40;;;7.80;;
19074;SDS011;9670;50.086;8.646;2022-07-03T01:16:16;8.60;;;8.00;;
19074;SDS011;9670;50.086;8.646;2022-07-03T01:17:20;8.57;;;7.97;;
19074;SDS011;9670;50.086;8.646;2022-07-03T01:18:29;8.90;;;8.17;;
19074;SDS011;9670;50.086;8.646;2022-07-03T01:19:37;8.07;;;7.40;;
19074;SDS011;9670;50.086;8.646;2022-07-03T01:20:43;7.80;;;7.30;;
19074;SDS011;9670;50.086;8.646;2022-07-03T01:21:49;9.10;;;6.97;;
19074;SDS011;9670;50.086;8.646;2022-07-03T01:22:59;7.47;;;7.00;;
19074;SDS011;9670;50.086;8.646;2022-07-03T01:25:44;8.13;;;7.53;;
19074;SDS011;9670;50.086;8.646;2022-07-03T01:26:47;8.13;;;7.47;;
19074;SDS011;9670;50.086;8.646;2022-07-03T01:27:58;8.23;;;7.60;;
19074;SDS011;9670;50.086;8.646;2022-07-03T01:29:08;7.53;;;7.00;;
19074;SDS011;9670;50.086;8.646;2022-07-03T01:30:10;7.90;;;7.30;;
19074;SDS011;9670;50.086;8.646;2022-07-03T01:31:15;7.70;;;7.10;;
19074;SDS011;9670;50.086;8.646;2022-07-03T01:32:21;7.73;;;6.93;;
19074;SDS011;9670;50.086;8.646;2022-07-03T01:33:26;7.83;;;7.33;;
19074;SDS011;9670;50.086;8.646;2022-07-03T01:34:34;7.65;;;6.95;;
19074;SDS011;9670;50.086;8.646;2022-07-03T01:35:40;7.10;;;6.67;;
19074;SDS011;9670;50.086;8.646;2022-07-03T01:36:44;7.95;;;7.43;;
19074;SDS011;9670;50.086;8.646;2022-07-03T01:37:49;7.67;;;7.07;;
19074;SDS011;9670;50.086;8.646;2022-07-03T01:38:52;7.78;;;7.28;;
19074;SDS011;9670;50.086;8.646;2022-07-03T01:39:55;6.93;;;6.53;;
19074;SDS011;9670;50.086;8.646;2022-07-03T01:41:02;7.33;;;6.73;;
19074;SDS011;9670;50.086;8.646;2022-07-03T01:42:04;7.70;;;7.07;;
19074;SDS011;9670;50.086;8.646;2022-07-03T01:43:08;7.00;;;6.43;;
19074;SDS011;9670;50.086;8.646;2022-07-03T01:44:11;6.67;;;6.27;;
19074;SDS011;9670;50.086;8.646;2022-07-03T01:45:15;7.30;;;6.70;;
19074;SDS011;9670;50.086;8.646;2022-07-03T01:46:22;6.73;;;6.33;;
19074;SDS011;9670;50.086;8.646;2022-07-03T01:47:29;7.17;;;6.67;;
19074;SDS011;9670;50.086;8.646;2022-07-03T01:48:33;6.55;;;5.97;;
19074;SDS011;9670;50.086;8.646;2022-07-03T01:49:35;6.73;;;6.33;;
19074;SDS011;9670;50.086;8.646;2022-07-03T01:50:38;7.83;;;7.00;;
19074;SDS011;9670;50.086;8.646;2022-07-03T01:51:42;6.67;;;6.10;;
19074;SDS011;9670;50.086;8.646;2022-07-03T01:52:45;6.80;;;6.30;;
19074;SDS011;9670;50.086;8.646;2022-07-03T01:53:50;7.43;;;6.00;;
19074;SDS011;9670;50.086;8.646;2022-07-03T01:54:53;6.53;;;6.03;;
19074;SDS011;9670;50.086;8.646;2022-07-03T01:55:56;6.23;;;5.70;;
19074;SDS011;9670;50.086;8.646;2022-07-03T01:57:01;6.17;;;5.60;;
19074;SDS011;9670;50.086;8.646;2022-07-03T01:58:04;6.67;;;6.20;;
19074;SDS011;9670;50.086;8.646;2022-07-03T01:59:06;6.68;;;6.05;;
19074;SDS011;9670;50.086;8.646;2022-07-03T02:00:09;6.10;;;5.60;;
19074;SDS011;9670;50.086;8.646;2022-07-03T02:01:14;6.47;;;6.07;;
19074;SDS011;9670;50.086;8.646;2022-07-03T02:02:24;6.28;;;5.88;;
19074;SDS011;9670;50.086;8.646;2022-07-03T02:03:28;6.53;;;6.00;;
19074;SDS011;9670;50.086;8.646;2022-07-03T02:04:32;6.40;;;5.87;;
19074;SDS011;9670;50.086;8.646;2022-07-03T02:05:37;6.63;;;6.13;;
19074;SDS011;9670;50.086;8.646;2022-07-03T02:06:40;6.72;;;6.22;;
19074;SDS011;9670;50.086;8.646;2022-07-03T02:07:47;6.53;;;6.13;;
19074;SDS011;9670;50.086;8.646;2022-07-03T02:08:53;6.17;;;5.70;;
19074;SDS011;9670;50.086;8.646;2022-07-03T02:10:22;5.60;;;5.23;;
19074;SDS011;9670;50.086;8.646;2022-07-03T02:11:28;5.47;;;4.97;;
19074;SDS011;9670;50.086;8.646;2022-07-03T02:12:38;6.37;;;5.77;;
19074;SDS011;9670;50.086;8.646;2022-07-03T02:13:51;5.50;;;5.00;;
19074;SDS011;9670;50.086;8.646;2022-07-03T02:14:58;5.43;;;5.03;;
19074;SDS011;9670;50.086;8.646;2022-07-03T02:16:05;5.50;;;5.00;;
19074;SDS011;9670;50.086;8.646;2022-07-03T02:17:13;6.07;;;5.68;;
19074;SDS011;9670;50.086;8.646;2022-07-03T02:18:23;5.65;;;5.25;;
19074;SDS011;9670;50.086;8.646;2022-07-03T02:19:30;5.90;;;5.50;;
19074;SDS011;9670;50.086;8.646;2022-07-03T02:20:36;5.67;;;5.00;;
19074;SDS011;9670;50.086;8.646;2022-07-03T02:21:47;5.80;;;5.00;;
19074;SDS011;9670;50.086;8.646;2022-07-03T02:22:51;5.68;;;5.22;;
19074;SDS011;9670;50.086;8.646;2022-07-03T02:24:10;5.20;;;4.70;;
19074;SDS011;9670;50.086;8.646;2022-07-03T02:25:19;5.67;;;4.73;;
19074;SDS011;9670;50.086;8.646;2022-07-03T02:26:29;5.13;;;4.53;;
19074;SDS011;9670;50.086;8.646;2022-07-03T02:27:40;5.00;;;4.50;;
19074;SDS011;9670;50.086;8.646;2022-07-03T02:28:50;4.93;;;4.53;;
19074;SDS011;9670;50.086;8.646;2022-07-03T02:29:59;7.77;;;4.93;;
19074;SDS011;9670;50.086;8.646;2022-07-03T02:31:05;5.53;;;4.40;;
19074;SDS011;9670;50.086;8.646;2022-07-03T02:32:11;7.15;;;4.93;;
19074;SDS011;9670;50.086;8.646;2022-07-03T02:33:18;4.90;;;4.50;;
19074;SDS011;9670;50.086;8.646;2022-07-03T02:34:22;5.00;;;4.60;;
19074;SDS011;9670;50.086;8.646;2022-07-03T02:35:26;5.37;;;4.67;;
19074;SDS011;9670;50.086;8.646;2022-07-03T02:36:28;5.38;;;4.88;;
19074;SDS011;9670;50.086;8.646;2022-07-03T02:37:35;4.90;;;4.50;;
19074;SDS011;9670;50.086;8.646;2022-07-03T02:38:40;5.20;;;4.80;;
19074;SDS011;9670;50.086;8.646;2022-07-03T02:39:48;6.33;;;4.63;;
19074;SDS011;9670;50.086;8.646;2022-07-03T02:40:55;5.13;;;4.73;;
19074;SDS011;9670;50.086;8.646;2022-07-03T02:42:00;5.10;;;4.70;;
19074;SDS011;9670;50.086;8.646;2022-07-03T02:43:10;4.60;;;4.20;;
19074;SDS011;9670;50.086;8.646;2022-07-03T02:44:21;5.35;;;4.85;;
19074;SDS011;9670;50.086;8.646;2022-07-03T02:45:29;5.10;;;4.65;;
19074;SDS011;9670;50.086;8.646;2022-07-03T02:46:37;5.57;;;5.00;;
19074;SDS011;9670;50.086;8.646;2022-07-03T02:47:55;5.68;;;5.18;;
19074;SDS011;9670;50.086;8.646;2022-07-03T02:49:02;4.82;;;4.43;;
19074;SDS011;9670;50.086;8.646;2022-07-03T02:50:15;5.00;;;4.60;;
19074;SDS011;9670;50.086;8.646;2022-07-03T02:51:20;5.10;;;4.70;;
19074;SDS011;9670;50.086;8.646;2022-07-03T02:52:28;4.38;;;4.07;;
19074;SDS011;9670;50.086;8.646;2022-07-03T02:53:35;5.00;;;4.57;;
19074;SDS011;9670;50.086;8.646;2022-07-03T02:54:42;5.43;;;4.37;;
19074;SDS011;9670;50.086;8.646;2022-07-03T02:55:45;4.93;;;4.53;;
19074;SDS011;9670;50.086;8.646;2022-07-03T02:56:51;4.97;;;4.57;;
19074;SDS011;9670;50.086;8.646;2022-07-03T02:58:03;4.80;;;4.45;;
19074;SDS011;9670;50.086;8.646;2022-07-03T02:59:14;5.03;;;4.63;;
19074;SDS011;9670;50.086;8.646;2022-07-03T03:00:21;4.97;;;4.63;;
19074;SDS011;9670;50.086;8.646;2022-07-03T03:01:29;4.90;;;4.50;;
19074;SDS011;9670;50.086;8.646;2022-07-03T03:02:36;6.07;;;4.57;;
19074;SDS011;9670;50.086;8.646;2022-07-03T03:03:50;4.65;;;4.25;;
19074;SDS011;9670;50.086;8.646;2022-07-03T03:04:57;4.63;;;4.22;;
19074;SDS011;9670;50.086;8.646;2022-07-03T03:06:02;5.20;;;4.70;;
19074;SDS011;9670;50.086;8.646;2022-07-03T03:07:08;4.80;;;4.40;;
19074;SDS011;9670;50.086;8.646;2022-07-03T03:08:11;5.30;;;4.80;;
19074;SDS011;9670;50.086;8.646;2022-07-03T03:09:14;4.70;;;4.40;;
19074;SDS011;9670;50.086;8.646;2022-07-03T03:10:22;4.95;;;4.43;;
19074;SDS011;9670;50.086;8.646;2022-07-03T03:11:29;5.05;;;4.68;;
19074;SDS011;9670;50.086;8.646;2022-07-03T03:12:36;4.82;;;4.43;;
19074;SDS011;9670;50.086;8.646;2022-07-03T03:13:38;4.57;;;4.17;;
19074;SDS011;9670;50.086;8.646;2022-07-03T03:14:43;5.18;;;4.70;;
19074;SDS011;9670;50.086;8.646;2022-07-03T03:15:49;7.57;;;4.77;;
19074;SDS011;9670;50.086;8.646;2022-07-03T03:16:57;5.13;;;4.30;;
19074;SDS011;9670;50.086;8.646;2022-07-03T03:18:01;4.68;;;4.28;;
19074;SDS011;9670;50.086;8.646;2022-07-03T03:19:05;5.68;;;4.50;;
19074;SDS011;9670;50.086;8.646;2022-07-03T03:20:08;5.47;;;4.97;;
19074;SDS011;9670;50.086;8.646;2022-07-03T03:21:13;5.43;;;4.80;;
19074;SDS011;9670;50.086;8.646;2022-07-03T03:22:24;4.93;;;4.37;;
19074;SDS011;9670;50.086;8.646;2022-07-03T03:23:42;4.70;;;4.30;;
19074;SDS011;9670;50.086;8.646;2022-07-03T03:24:46;4.55;;;4.25;;
19074;SDS011;9670;50.086;8.646;2022-07-03T03:25:50;5.45;;;5.03;;
19074;SDS011;9670;50.086;8.646;2022-07-03T03:26:53;6.18;;;4.70;;
19074;SDS011;9670;50.086;8.646;2022-07-03T03:27:55;5.40;;;4.90;;
19074;SDS011;9670;50.086;8.646;2022-07-03T03:28:58;5.18;;;4.65;;
19074;SDS011;9670;50.086;8.646;2022-07-03T03:30:02;5.50;;;5.07;;
19074;SDS011;9670;50.086;8.646;2022-07-03T03:31:07;5.65;;;4.78;;
19074;SDS011;9670;50.086;8.646;2022-07-03T03:32:11;6.18;;;5.32;;
19074;SDS011;9670;50.086;8.646;2022-07-03T03:33:14;6.78;;;5.03;;
19074;SDS011;9670;50.086;8.646;2022-07-03T03:34:16;6.93;;;5.07;;
19074;SDS011;9670;50.086;8.646;2022-07-03T03:35:20;5.07;;;4.60;;
19074;SDS011;9670;50.086;8.646;2022-07-03T03:36:21;7.15;;;5.22;;
19074;SDS011;9670;50.086;8.646;2022-07-03T03:37:24;5.03;;;4.63;;
19074;SDS011;9670;50.086;8.646;2022-07-03T03:38:27;5.97;;;5.22;;
19074;SDS011;9670;50.086;8.646;2022-07-03T03:39:30;5.80;;;5.30;;
19074;SDS011;9670;50.086;8.646;2022-07-03T03:40:33;5.80;;;5.00;;
19074;SDS011;9670;50.086;8.646;2022-07-03T03:41:35;5.18;;;4.68;;
19074;SDS011;9670;50.086;8.646;2022-07-03T03:42:38;4.85;;;4.50;;
19074;SDS011;9670;50.086;8.646;2022-07-03T03:43:40;5.70;;;5.20;;
19074;SDS011;9670;50.086;8.646;2022-07-03T03:44:43;5.07;;;4.72;;
19074;SDS011;9670;50.086;8.646;2022-07-03T03:45:47;5.07;;;4.68;;
19074;SDS011;9670;50.086;8.646;2022-07-03T03:46:50;4.90;;;4.50;;
19074;SDS011;9670;50.086;8.646;2022-07-03T03:47:52;5.50;;;5.00;;
19074;SDS011;9670;50.086;8.646;2022-07-03T03:48:55;5.55;;;4.43;;
19074;SDS011;9670;50.086;8.646;2022-07-03T03:49:57;5.88;;;5.38;;
19074;SDS011;9670;50.086;8.646;2022-07-03T03:51:00;5.28;;;4.88;;
19074;SDS011;9670;50.086;8.646;2022-07-03T03:52:04;6.35;;;5.18;;
19074;SDS011;9670;50.086;8.646;2022-07-03T03:53:07;5.30;;;4.90;;
19074;SDS011;9670;50.086;8.646;2022-07-03T03:54:10;5.78;;;5.18;;
19074;SDS011;9670;50.086;8.646;2022-07-03T03:55:12;5.28;;;4.78;;
19074;SDS011;9670;50.086;8.646;2022-07-03T03:56:14;5.28;;;4.95;;
19074;SDS011;9670;50.086;8.646;2022-07-03T03:57:17;5.60;;;5.15;;
19074;SDS011;9670;50.086;8.646;2022-07-03T03:58:20;5.93;;;5.43;;
19074;SDS011;9670;50.086;8.646;2022-07-03T03:59:22;5.88;;;5.28;;
19074;SDS011;9670;50.086;8.646;2022-07-03T04:00:25;5.20;;;4.80;;
19074;SDS011;9670;50.086;8.646;2022-07-03T04:01:28;5.50;;;5.10;;
19074;SDS011;9670;50.086;8.646;2022-07-03T04:02:31;5.20;;;4.80;;
19074;SDS011;9670;50.086;8.646;2022-07-03T04:03:34;5.35;;;4.90;;
19074;SDS011;9670;50.086;8.646;2022-07-03T04:04:37;5.07;;;4.47;;
19074;SDS011;9670;50.086;8.646;2022-07-03T04:05:39;5.30;;;4.90;;
19074;SDS011;9670;50.086;8.646;2022-07-03T04:06:45;4.95;;;4.47;;
19074;SDS011;9670;50.086;8.646;2022-07-03T04:07:58;6.18;;;5.47;;
19074;SDS011;9670;50.086;8.646;2022-07-03T04:09:00;5.70;;;5.20;;
19074;SDS011;9670;50.086;8.646;2022-07-03T04:10:02;5.45;;;5.05;;
19074;SDS011;9670;50.086;8.646;2022-07-03T04:11:05;5.75;;;5.35;;
19074;SDS011;9670;50.086;8.646;2022-07-03T04:12:07;5.40;;;5.00;;
19074;SDS011;9670;50.086;8.646;2022-07-03T04:13:11;5.53;;;5.13;;
19074;SDS011;9670;50.086;8.646;2022-07-03T04:14:13;5.68;;;5.18;;
19074;SDS011;9670;50.086;8.646;2022-07-03T04:15:16;5.72;;;5.22;;
19074;SDS011;9670;50.086;8.646;2022-07-03T04:16:18;5.47;;;5.03;;
19074;SDS011;9670;50.086;8.646;2022-07-03T04:17:22;5.78;;;5.15;;
19074;SDS011;9670;50.086;8.646;2022-07-03T04:18:24;5.68;;;5.20;;
19074;SDS011;9670;50.086;8.646;2022-07-03T04:19:32;6.95;;;5.45;;
19074;SDS011;9670;50.086;8.646;2022-07-03T04:20:35;5.45;;;5.13;;
19074;SDS011;9670;50.086;8.646;2022-07-03T04:21:37;5.80;;;5.30;;
19074;SDS011;9670;50.086;8.646;2022-07-03T04:22:39;5.80;;;5.40;;
19074;SDS011;9670;50.086;8.646;2022-07-03T04:23:42;6.00;;;5.50;;
19074;SDS011;9670;50.086;8.646;2022-07-03T04:24:45;6.30;;;5.70;;
19074;SDS011;9670;50.086;8.646;2022-07-03T04:25:47;6.95;;;6.07;;
19074;SDS011;9670;50.086;8.646;2022-07-03T04:26:50;6.15;;;5.65;;
19074;SDS011;9670;50.086;8.646;2022-07-03T04:27:51;6.10;;;5.70;;
19074;SDS011;9670;50.086;8.646;2022-07-03T04:29:14;6.10;;;5.70;;
19074;SDS011;9670;50.086;8.646;2022-07-03T04:30:17;5.90;;;5.50;;
19074;SDS011;9670;50.086;8.646;2022-07-03T04:31:19;6.20;;;5.82;;
19074;SDS011;9670;50.086;8.646;2022-07-03T04:32:24;6.05;;;5.65;;
19074;SDS011;9670;50.086;8.646;2022-07-03T04:33:25;6.13;;;5.68;;
19074;SDS011;9670;50.086;8.646;2022-07-03T04:34:28;6.57;;;6.00;;
19074;SDS011;9670;50.086;8.646;2022-07-03T04:35:30;6.00;;;5.50;;
19074;SDS011;9670;50.086;8.646;2022-07-03T04:36:33;6.22;;;5.82;;
19074;SDS011;9670;50.086;8.646;2022-07-03T04:37:35;5.95;;;5.53;;
19074;SDS011;9670;50.086;8.646;2022-07-03T04:38:37;6.03;;;5.53;;
19074;SDS011;9670;50.086;8.646;2022-07-03T04:39:39;6.65;;;5.28;;
19074;SDS011;9670;50.086;8.646;2022-07-03T04:40:43;6.20;;;5.10;;
19074;SDS011;9670;50.086;8.646;2022-07-03T04:41:45;5.40;;;5.10;;
19074;SDS011;9670;50.086;8.646;2022-07-03T04:42:48;6.28;;;5.75;;
19074;SDS011;9670;50.086;8.646;2022-07-03T04:43:49;5.70;;;5.22;;
19074;SDS011;9670;50.086;8.646;2022-07-03T04:44:52;5.75;;;5.35;;
19074;SDS011;9670;50.086;8.646;2022-07-03T04:45:54;7.47;;;5.65;;
19074;SDS011;9670;50.086;8.646;2022-07-03T04:46:57;6.22;;;5.70;;
19074;SDS011;9670;50.086;8.646;2022-07-03T04:48:00;5.75;;;5.35;;
19074;SDS011;9670;50.086;8.646;2022-07-03T04:49:03;5.15;;;4.85;;
19074;SDS011;9670;50.086;8.646;2022-07-03T04:50:05;5.55;;;5.03;;
19074;SDS011;9670;50.086;8.646;2022-07-03T04:51:08;6.00;;;5.50;;
19074;SDS011;9670;50.086;8.646;2022-07-03T04:52:10;6.03;;;5.63;;
19074;SDS011;9670;50.086;8.646;2022-07-03T04:53:13;6.10;;;5.70;;
19074;SDS011;9670;50.086;8.646;2022-07-03T04:54:15;8.20;;;5.78;;
19074;SDS011;9670;50.086;8.646;2022-07-03T04:55:18;5.75;;;5.30;;
19074;SDS011;9670;50.086;8.646;2022-07-03T04:56:19;5.15;;;4.75;;
19074;SDS011;9670;50.086;8.646;2022-07-03T04:57:22;6.03;;;5.55;;
19074;SDS011;9670;50.086;8.646;2022-07-03T04:58:24;5.70;;;5.30;;
19074;SDS011;9670;50.086;8.646;2022-07-03T04:59:30;5.60;;;5.30;;
19074;SDS011;9670;50.086;8.646;2022-07-03T05:00:32;5.10;;;4.80;;
19074;SDS011;9670;50.086;8.646;2022-07-03T05:01:35;5.40;;;4.95;;
19074;SDS011;9670;50.086;8.646;2022-07-03T05:02:37;5.50;;;5.03;;
19074;SDS011;9670;50.086;8.646;2022-07-03T05:03:41;5.53;;;5.10;;
19074;SDS011;9670;50.086;8.646;2022-07-03T05:04:43;5.70;;;5.30;;
19074;SDS011;9670;50.086;8.646;2022-07-03T05:05:46;6.20;;;5.63;;
19074;SDS011;9670;50.086;8.646;2022-07-03T05:06:48;5.68;;;5.28;;
19074;SDS011;9670;50.086;8.646;2022-07-03T05:07:51;6.15;;;5.65;;
19074;SDS011;9670;50.086;8.646;2022-07-03T05:08:53;5.93;;;5.40;;
19074;SDS011;9670;50.086;8.646;2022-07-03T05:09:55;5.85;;;5.50;;
19074;SDS011;9670;50.086;8.646;2022-07-03T05:10:57;5.93;;;5.43;;
19074;SDS011;9670;50.086;8.646;2022-07-03T05:12:01;5.45;;;5.05;;
19074;SDS011;9670;50.086;8.646;2022-07-03T05:13:03;5.60;;;5.20;;
19074;SDS011;9670;50.086;8.646;2022-07-03T05:14:06;5.88;;;5.47;;
19074;SDS011;9670;50.086;8.646;2022-07-03T05:15:09;5.75;;;5.43;;
19074;SDS011;9670;50.086;8.646;2022-07-03T05:16:11;5.85;;;5.50;;
19074;SDS011;9670;50.086;8.646;2022-07-03T05:17:16;5.35;;;4.95;;
19074;SDS011;9670;50.086;8.646;2022-07-03T05:18:18;6.57;;;5.72;;
19074;SDS011;9670;50.086;8.646;2022-07-03T05:19:23;5.07;;;4.77;;
19074;SDS011;9670;50.086;8.646;2022-07-03T05:20:25;5.23;;;4.83;;
19074;SDS011;9670;50.086;8.646;2022-07-03T05:21:30;5.03;;;4.63;;
19074;SDS011;9670;50.086;8.646;2022-07-03T05:22:32;5.23;;;4.93;;
19074;SDS011;9670;50.086;8.646;2022-07-03T05:23:34;5.43;;;5.03;;
19074;SDS011;9670;50.086;8.646;2022-07-03T05:24:36;4.97;;;4.60;;
19074;SDS011;9670;50.086;8.646;2022-07-03T05:25:39;5.32;;;4.82;;
19074;SDS011;9670;50.086;8.646;2022-07-03T05:26:41;4.53;;;4.20;;
19074;SDS011;9670;50.086;8.646;2022-07-03T05:27:44;4.80;;;4.50;;
19074;SDS011;9670;50.086;8.646;2022-07-03T05:28:46;5.43;;;4.90;;
19074;SDS011;9670;50.086;8.646;2022-07-03T05:29:48;5.20;;;4.70;;
19074;SDS011;9670;50.086;8.646;2022-07-03T05:30:50;5.10;;;4.70;;
19074;SDS011;9670;50.086;8.646;2022-07-03T05:31:53;4.78;;;4.47;;
19074;SDS011;9670;50.086;8.646;2022-07-03T05:32:55;6.38;;;4.88;;
19074;SDS011;9670;50.086;8.646;2022-07-03T05:33:58;5.17;;;4.77;;
19074;SDS011;9670;50.086;8.646;2022-07-03T05:35:02;5.63;;;5.13;;
19074;SDS011;9670;50.086;8.646;2022-07-03T05:36:04;5.57;;;5.07;;
19074;SDS011;9670;50.086;8.646;2022-07-03T05:37:08;5.47;;;4.97;;
19074;SDS011;9670;50.086;8.646;2022-07-03T05:38:09;5.28;;;4.78;;
19074;SDS011;9670;50.086;8.646;2022-07-03T05:39:12;5.13;;;4.70;;
19074;SDS011;9670;50.086;8.646;2022-07-03T05:40:37;5.37;;;4.93;;
19074;SDS011;9670;50.086;8.646;2022-07-03T05:41:40;5.43;;;5.03;;
19074;SDS011;9670;50.086;8.646;2022-07-03T05:42:42;5.03;;;4.63;;
19074;SDS011;9670;50.086;8.646;2022-07-03T05:43:45;6.17;;;4.87;;
19074;SDS011;9670;50.086;8.646;2022-07-03T05:44:48;5.30;;;4.90;;
19074;SDS011;9670;50.086;8.646;2022-07-03T05:45:49;5.20;;;4.80;;
19074;SDS011;9670;50.086;8.646;2022-07-03T05:46:52;4.82;;;4.50;;
19074;SDS011;9670;50.086;8.646;2022-07-03T05:47:54;5.00;;;4.60;;
19074;SDS011;9670;50.086;8.646;2022-07-03T05:48:57;5.68;;;4.60;;
19074;SDS011;9670;50.086;8.646;2022-07-03T05:49:59;5.17;;;4.67;;
19074;SDS011;9670;50.086;8.646;2022-07-03T05:51:03;5.47;;;4.95;;
19074;SDS011;9670;50.086;8.646;2022-07-03T05:52:05;5.13;;;4.70;;
19074;SDS011;9670;50.086;8.646;2022-07-03T05:53:08;5.50;;;4.87;;
19074;SDS011;9670;50.086;8.646;2022-07-03T05:54:10;5.57;;;4.83;;
19074;SDS011;9670;50.086;8.646;2022-07-03T05:55:12;4.80;;;4.40;;
19074;SDS011;9670;50.086;8.646;2022-07-03T05:56:14;4.60;;;4.30;;
19074;SDS011;9670;50.086;8.646;2022-07-03T05:57:17;5.67;;;5.27;;
19074;SDS011;9670;50.086;8.646;2022-07-03T05:58:19;5.23;;;4.93;;
19074;SDS011;9670;50.086;8.646;2022-07-03T05:59:21;5.30;;;4.90;;
19074;SDS011;9670;50.086;8.646;2022-07-03T06:00:23;5.10;;;4.70;;
19074;SDS011;9670;50.086;8.646;2022-07-03T06:01:26;5.00;;;4.70;;
19074;SDS011;9670;50.086;8.646;2022-07-03T06:02:28;5.30;;;4.80;;
19074;SDS011;9670;50.086;8.646;2022-07-03T06:03:31;5.90;;;5.40;;
19074;SDS011;9670;50.086;8.646;2022-07-03T06:04:33;6.40;;;5.80;;
19074;SDS011;9670;50.086;8.646;2022-07-03T06:05:35;5.53;;;5.23;;
19074;SDS011;9670;50.086;8.646;2022-07-03T06:06:39;5.60;;;5.27;;
19074;SDS011;9670;50.086;8.646;2022-07-03T06:07:41;6.00;;;5.50;;
19074;SDS011;9670;50.086;8.646;2022-07-03T06:08:43;6.73;;;6.33;;
19074;SDS011;9670;50.086;8.646;2022-07-03T06:09:46;7.03;;;6.53;;
19074;SDS011;9670;50.086;8.646;2022-07-03T06:10:49;7.27;;;6.83;;
19074;SDS011;9670;50.086;8.646;2022-07-03T06:11:52;6.53;;;5.93;;
19074;SDS011;9670;50.086;8.646;2022-07-03T06:12:54;7.00;;;6.40;;
19074;SDS011;9670;50.086;8.646;2022-07-03T06:13:57;6.40;;;5.90;;
19074;SDS011;9670;50.086;8.646;2022-07-03T06:14:59;6.30;;;5.90;;
19074;SDS011;9670;50.086;8.646;2022-07-03T06:16:03;6.53;;;6.13;;
19074;SDS011;9670;50.086;8.646;2022-07-03T06:17:05;6.70;;;6.23;;
19074;SDS011;9670;50.086;8.646;2022-07-03T06:18:08;7.00;;;6.40;;
19074;SDS011;9670;50.086;8.646;2022-07-03T06:19:10;6.83;;;6.13;;
19074;SDS011;9670;50.086;8.646;2022-07-03T06:20:13;7.40;;;6.90;;
19074;SDS011;9670;50.086;8.646;2022-07-03T06:21:15;7.27;;;6.77;;
19074;SDS011;9670;50.086;8.646;2022-07-03T06:22:19;6.90;;;6.40;;
19074;SDS011;9670;50.086;8.646;2022-07-03T06:23:21;7.53;;;6.93;;
19074;SDS011;9670;50.086;8.646;2022-07-03T06:24:44;7.53;;;7.00;;
19074;SDS011;9670;50.086;8.646;2022-07-03T06:25:46;6.90;;;6.40;;
19074;SDS011;9670;50.086;8.646;2022-07-03T06:26:48;7.33;;;6.83;;
19074;SDS011;9670;50.086;8.646;2022-07-03T06:27:51;6.93;;;6.53;;
19074;SDS011;9670;50.086;8.646;2022-07-03T06:28:53;7.50;;;6.90;;
19074;SDS011;9670;50.086;8.646;2022-07-03T06:29:56;7.70;;;7.10;;
19074;SDS011;9670;50.086;8.646;2022-07-03T06:30:57;7.50;;;6.90;;
19074;SDS011;9670;50.086;8.646;2022-07-03T06:32:00;7.70;;;7.20;;
19074;SDS011;9670;50.086;8.646;2022-07-03T06:33:02;7.47;;;7.00;;
19074;SDS011;9670;50.086;8.646;2022-07-03T06:34:05;8.07;;;7.47;;
19074;SDS011;9670;50.086;8.646;2022-07-03T06:35:07;8.50;;;7.90;;